sensor_id;sensor_type;location;lat;lon;timestamp;pressure;altitude;pressure_sealevel;temperature;humidity
54122;BME280;40029;58.708;50.190;2023-02-18T00:02:16;100455.97;;;-8.33;42.14
54122;BME280;40029;58.708;50.190;2023-02-18T00:04:47;100391.38;;;-8.64;41.81
54122;BME280;40029;58.708;50.190;2023-02-18T00:07:18;100412.16;;;-8.51;42.21
54122;BME280;40029;58.708;50.190;2023-02-18T00:09:49;100436.38;;;-8.39;42.21
54122;BME280;40029;58.708;50.190;2023-02-18T00:12:20;100401.78;;;-8.58;42.24
54122;BME280;40029;58.708;50.190;2023-02-18T00:14:52;100354.38;;;-8.79;41.97
54122;BME280;40029;58.708;50.190;2023-02-18T00:17:23;100421.78;;;-8.44;42.42
54122;BME280;40029;58.708;50.190;2023-02-18T00:20:13;100342.34;;;-8.85;42.12
54122;BME280;40029;58.708;50.190;2023-02-18T00:22:44;100341.47;;;-8.86;41.97
54122;BME280;40029;58.708;50.190;2023-02-18T00:25:15;100401.19;;;-8.52;41.88
54122;BME280;40029;58.708;50.190;2023-02-18T00:27:46;100364.38;;;-8.83;41.87
54122;BME280;40029;58.708;50.190;2023-02-18T00:30:42;100417.28;;;-8.50;41.64
54122;BME280;40029;58.708;50.190;2023-02-18T00:33:31;100424.13;;;-8.65;41.83
54122;BME280;40029;58.708;50.190;2023-02-18T00:36:21;100387.94;;;-8.82;42.11
54122;BME280;40029;58.708;50.190;2023-02-18T00:38:59;100429.84;;;-8.69;42.22
54122;BME280;40029;58.708;50.190;2023-02-18T00:41:31;100394.28;;;-8.90;42.42
54122;BME280;40029;58.708;50.190;2023-02-18T00:44:04;100409.00;;;-8.82;42.42
54122;BME280;40029;58.708;50.190;2023-02-18T00:46:35;100400.41;;;-8.85;42.18
54122;BME280;40029;58.708;50.190;2023-02-18T00:49:06;100410.59;;;-8.84;42.04
54122;BME280;40029;58.708;50.190;2023-02-18T00:51:56;100394.75;;;-8.97;41.88
54122;BME280;40029;58.708;50.190;2023-02-18T00:54:27;100345.75;;;-9.35;42.19
54122;BME280;40029;58.708;50.190;2023-02-18T00:56:58;100411.41;;;-9.01;42.30
54122;BME280;40029;58.708;50.190;2023-02-18T00:59:30;100363.63;;;-9.31;42.24
54122;BME280;40029;58.708;50.190;2023-02-18T01:02:01;100350.78;;;-9.35;41.82
54122;BME280;40029;58.708;50.190;2023-02-18T01:04:32;100399.41;;;-9.05;41.62
54122;BME280;40029;58.708;50.190;2023-02-18T01:07:03;100393.44;;;-9.07;41.67
54122;BME280;40029;58.708;50.190;2023-02-18T01:09:52;100323.94;;;-9.51;41.65
54122;BME280;40029;58.708;50.190;2023-02-18T01:12:23;100331.97;;;-9.58;42.21
54122;BME280;40029;58.708;50.190;2023-02-18T01:14:55;100403.88;;;-9.17;41.90
54122;BME280;40029;58.708;50.190;2023-02-18T01:17:26;100345.06;;;-9.49;41.49
54122;BME280;40029;58.708;50.190;2023-02-18T01:19:58;100398.03;;;-9.16;41.71
54122;BME280;40029;58.708;50.190;2023-02-18T01:22:29;100353.66;;;-9.45;41.45
54122;BME280;40029;58.708;50.190;2023-02-18T01:25:00;100365.28;;;-9.31;41.20
54122;BME280;40029;58.708;50.190;2023-02-18T01:27:33;100383.13;;;-9.28;41.47
54122;BME280;40029;58.708;50.190;2023-02-18T01:30:08;100300.00;;;-9.75;41.68
54122;BME280;40029;58.708;50.190;2023-02-18T01:32:42;100331.00;;;-9.60;41.52
54122;BME280;40029;58.708;50.190;2023-02-18T01:35:16;100381.56;;;-9.42;41.97
54122;BME280;40029;58.708;50.190;2023-02-18T01:37:48;100370.50;;;-9.44;41.45
54122;BME280;40029;58.708;50.190;2023-02-18T01:40:24;100319.91;;;-9.80;41.48
54122;BME280;40029;58.708;50.190;2023-02-18T01:42:57;100309.19;;;-9.92;41.40
54122;BME280;40029;58.708;50.190;2023-02-18T01:48:19;100370.41;;;-9.78;41.52
54122;BME280;40029;58.708;50.190;2023-02-18T01:56:50;100287.28;;;-10.26;41.52
54122;BME280;40029;58.708;50.190;2023-02-18T01:59:25;100365.06;;;-9.85;42.09
54122;BME280;40029;58.708;50.190;2023-02-18T02:01:58;100230.09;;;-10.60;42.04
54122;BME280;40029;58.708;50.190;2023-02-18T02:04:29;100352.91;;;-9.92;42.12
54122;BME280;40029;58.708;50.190;2023-02-18T02:07:01;100344.53;;;-10.07;42.62
54122;BME280;40029;58.708;50.190;2023-02-18T02:09:33;100284.97;;;-10.38;42.19
54122;BME280;40029;58.708;50.190;2023-02-18T02:44:21;100335.97;;;-10.27;41.81
54122;BME280;40029;58.708;50.190;2023-02-18T02:47:02;100313.91;;;-10.31;41.87
54122;BME280;40029;58.708;50.190;2023-02-18T02:49:47;100327.25;;;-10.16;41.18
54122;BME280;40029;58.708;50.190;2023-02-18T02:52:44;100327.19;;;-10.17;41.48
54122;BME280;40029;58.708;50.190;2023-02-18T02:55:18;100302.84;;;-10.33;41.40
54122;BME280;40029;58.708;50.190;2023-02-18T02:57:52;100307.28;;;-10.29;41.72
54122;BME280;40029;58.708;50.190;2023-02-18T03:00:53;100308.94;;;-10.29;41.59
54122;BME280;40029;58.708;50.190;2023-02-18T03:12:05;100323.72;;;-10.36;41.47
54122;BME280;40029;58.708;50.190;2023-02-18T03:17:58;100330.25;;;-10.39;41.42
54122;BME280;40029;58.708;50.190;2023-02-18T03:20:34;100331.13;;;-10.39;41.04
54122;BME280;40029;58.708;50.190;2023-02-18T03:23:10;100309.84;;;-10.44;41.28
54122;BME280;40029;58.708;50.190;2023-02-18T03:25:43;100283.00;;;-10.74;41.23
54122;BME280;40029;58.708;50.190;2023-02-18T03:28:18;100305.31;;;-10.66;41.27
54122;BME280;40029;58.708;50.190;2023-02-18T03:30:51;100308.22;;;-10.58;41.04
54122;BME280;40029;58.708;50.190;2023-02-18T03:33:30;100264.88;;;-10.84;41.46
54122;BME280;40029;58.708;50.190;2023-02-18T03:36:03;100301.44;;;-10.59;41.02
54122;BME280;40029;58.708;50.190;2023-02-18T03:38:43;100249.09;;;-10.96;40.79
54122;BME280;40029;58.708;50.190;2023-02-18T03:41:16;100300.16;;;-10.67;40.98
54122;BME280;40029;58.708;50.190;2023-02-18T03:43:51;100312.06;;;-10.65;40.85
54122;BME280;40029;58.708;50.190;2023-02-18T03:46:23;100271.91;;;-10.93;41.18
54122;BME280;40029;58.708;50.190;2023-02-18T03:48:54;100245.91;;;-11.08;41.33
54122;BME280;40029;58.708;50.190;2023-02-18T03:51:26;100281.78;;;-10.81;40.94
54122;BME280;40029;58.708;50.190;2023-02-18T03:53:57;100299.41;;;-10.81;41.29
54122;BME280;40029;58.708;50.190;2023-02-18T03:56:29;100276.00;;;-10.95;40.82
54122;BME280;40029;58.708;50.190;2023-02-18T03:59:00;100307.22;;;-10.76;40.99
54122;BME280;40029;58.708;50.190;2023-02-18T04:01:31;100289.09;;;-10.86;40.49
54122;BME280;40029;58.708;50.190;2023-02-18T04:04:02;100307.41;;;-10.88;40.65
54122;BME280;40029;58.708;50.190;2023-02-18T04:06:34;100299.25;;;-10.84;41.02
54122;BME280;40029;58.708;50.190;2023-02-18T04:09:05;100229.03;;;-11.25;40.61
54122;BME280;40029;58.708;50.190;2023-02-18T04:11:39;100298.97;;;-10.89;40.67
54122;BME280;40029;58.708;50.190;2023-02-18T04:14:12;100300.63;;;-10.89;40.73
54122;BME280;40029;58.708;50.190;2023-02-18T04:16:44;100303.47;;;-10.83;40.52
54122;BME280;40029;58.708;50.190;2023-02-18T04:19:15;100239.41;;;-11.19;40.29
54122;BME280;40029;58.708;50.190;2023-02-18T04:21:46;100243.03;;;-11.14;40.23
54122;BME280;40029;58.708;50.190;2023-02-18T04:24:18;100292.75;;;-10.95;40.38
54122;BME280;40029;58.708;50.190;2023-02-18T04:26:49;100256.75;;;-11.09;40.50
54122;BME280;40029;58.708;50.190;2023-02-18T04:29:38;100184.00;;;-11.65;40.68
54122;BME280;40029;58.708;50.190;2023-02-18T04:32:09;100248.09;;;-11.29;40.59
54122;BME280;40029;58.708;50.190;2023-02-18T04:34:40;100288.16;;;-11.02;40.35
54122;BME280;40029;58.708;50.190;2023-02-18T04:37:12;100260.94;;;-11.24;40.38
54122;BME280;40029;58.708;50.190;2023-02-18T04:39:43;100263.59;;;-11.21;39.93
54122;BME280;40029;58.708;50.190;2023-02-18T04:42:14;100284.94;;;-11.15;40.48
54122;BME280;40029;58.708;50.190;2023-02-18T04:44:45;100285.38;;;-11.22;40.06
54122;BME280;40029;58.708;50.190;2023-02-18T04:47:16;100235.78;;;-11.54;39.67
54122;BME280;40029;58.708;50.190;2023-02-18T04:49:48;100293.72;;;-11.23;39.87
54122;BME280;40029;58.708;50.190;2023-02-18T04:52:19;100243.31;;;-11.54;40.13
54122;BME280;40029;58.708;50.190;2023-02-18T04:54:50;100240.81;;;-11.54;39.54
54122;BME280;40029;58.708;50.190;2023-02-18T04:57:21;100261.53;;;-11.43;39.97
54122;BME280;40029;58.708;50.190;2023-02-18T04:59:52;100226.75;;;-11.65;39.55
54122;BME280;40029;58.708;50.190;2023-02-18T05:02:23;100269.84;;;-11.44;39.84
54122;BME280;40029;58.708;50.190;2023-02-18T05:04:55;100210.88;;;-11.64;39.61
54122;BME280;40029;58.708;50.190;2023-02-18T05:07:26;100257.28;;;-11.29;39.60
54122;BME280;40029;58.708;50.190;2023-02-18T05:09:57;100213.75;;;-11.58;39.65
54122;BME280;40029;58.708;50.190;2023-02-18T05:12:28;100209.78;;;-11.54;39.58
54122;BME280;40029;58.708;50.190;2023-02-18T05:14:59;100199.00;;;-11.52;40.11
54122;BME280;40029;58.708;50.190;2023-02-18T05:17:30;100262.38;;;-11.13;40.03
54122;BME280;40029;58.708;50.190;2023-02-18T05:20:02;100201.03;;;-11.46;39.86
54122;BME280;40029;58.708;50.190;2023-02-18T05:22:34;100209.94;;;-11.37;39.66
54122;BME280;40029;58.708;50.190;2023-02-18T05:25:06;100252.06;;;-11.03;40.10
54122;BME280;40029;58.708;50.190;2023-02-18T05:27:37;100220.41;;;-11.14;39.80
54122;BME280;40029;58.708;50.190;2023-02-18T05:30:08;100272.09;;;-10.90;40.19
54122;BME280;40029;58.708;50.190;2023-02-18T05:32:40;100236.63;;;-11.09;39.86
54122;BME280;40029;58.708;50.190;2023-02-18T05:35:11;100201.44;;;-11.24;40.46
54122;BME280;40029;58.708;50.190;2023-02-18T05:37:43;100215.47;;;-11.13;40.33
54122;BME280;40029;58.708;50.190;2023-02-18T05:40:14;100263.63;;;-10.75;39.86
54122;BME280;40029;58.708;50.190;2023-02-18T05:42:45;100252.47;;;-10.80;39.83
54122;BME280;40029;58.708;50.190;2023-02-18T05:45:17;100273.19;;;-10.70;39.95
54122;BME280;40029;58.708;50.190;2023-02-18T05:47:48;100277.06;;;-10.60;40.10
54122;BME280;40029;58.708;50.190;2023-02-18T05:50:19;100223.22;;;-10.78;39.93
54122;BME280;40029;58.708;50.190;2023-02-18T05:53:09;100261.59;;;-10.51;39.85
54122;BME280;40029;58.708;50.190;2023-02-18T05:55:40;100268.38;;;-10.34;39.67
54122;BME280;40029;58.708;50.190;2023-02-18T05:58:11;100260.91;;;-10.33;39.79
54122;BME280;40029;58.708;50.190;2023-02-18T06:01:02;100271.94;;;-10.14;39.93
54122;BME280;40029;58.708;50.190;2023-02-18T06:03:33;100219.31;;;-10.41;40.26
54122;BME280;40029;58.708;50.190;2023-02-18T06:06:04;100237.19;;;-10.20;40.00
54122;BME280;40029;58.708;50.190;2023-02-18T06:08:36;100215.41;;;-10.19;40.29
54122;BME280;40029;58.708;50.190;2023-02-18T06:11:07;100207.91;;;-10.18;39.93
54122;BME280;40029;58.708;50.190;2023-02-18T06:13:38;100138.88;;;-10.54;39.89
54122;BME280;40029;58.708;50.190;2023-02-18T06:16:09;100231.13;;;-9.91;40.14
54122;BME280;40029;58.708;50.190;2023-02-18T06:18:41;100230.03;;;-9.79;39.88
54122;BME280;40029;58.708;50.190;2023-02-18T06:21:12;100223.63;;;-9.73;39.99
54122;BME280;40029;58.708;50.190;2023-02-18T06:23:43;100211.31;;;-9.67;39.86
54122;BME280;40029;58.708;50.190;2023-02-18T06:26:14;100212.75;;;-9.55;39.72
54122;BME280;40029;58.708;50.190;2023-02-18T06:28:45;100227.09;;;-9.37;40.18
54122;BME280;40029;58.708;50.190;2023-02-18T06:31:16;100228.13;;;-9.33;39.88
54122;BME280;40029;58.708;50.190;2023-02-18T06:33:47;100218.03;;;-9.33;40.43
54122;BME280;40029;58.708;50.190;2023-02-18T06:36:18;100158.59;;;-9.62;40.53
54122;BME280;40029;58.708;50.190;2023-02-18T06:38:50;100155.59;;;-9.55;40.25
54122;BME280;40029;58.708;50.190;2023-02-18T06:41:21;100175.78;;;-9.37;39.93
54122;BME280;40029;58.708;50.190;2023-02-18T06:43:53;100206.00;;;-9.03;40.21
54122;BME280;40029;58.708;50.190;2023-02-18T06:46:24;100149.31;;;-9.27;40.06
54122;BME280;40029;58.708;50.190;2023-02-18T06:48:55;100203.47;;;-8.85;40.48
54122;BME280;40029;58.708;50.190;2023-02-18T06:51:27;100131.22;;;-9.19;40.17
54122;BME280;40029;58.708;50.190;2023-02-18T06:54:16;100207.91;;;-8.62;40.07
54122;BME280;40029;58.708;50.190;2023-02-18T06:56:47;100138.63;;;-8.86;39.70
54122;BME280;40029;58.708;50.190;2023-02-18T06:59:19;100130.28;;;-8.84;39.71
54122;BME280;40029;58.708;50.190;2023-02-18T07:01:50;100139.28;;;-8.71;40.14
54122;BME280;40029;58.708;50.190;2023-02-18T07:04:39;100189.19;;;-8.28;39.55
54122;BME280;40029;58.708;50.190;2023-02-18T07:07:11;100137.44;;;-8.56;39.90
54122;BME280;40029;58.708;50.190;2023-02-18T07:09:42;100142.53;;;-8.35;40.03
54122;BME280;40029;58.708;50.190;2023-02-18T07:12:13;100129.19;;;-8.32;39.69
54122;BME280;40029;58.708;50.190;2023-02-18T07:14:44;100168.59;;;-7.97;39.73
54122;BME280;40029;58.708;50.190;2023-02-18T07:17:15;100127.44;;;-8.14;39.58
54122;BME280;40029;58.708;50.190;2023-02-18T07:20:06;100186.72;;;-7.67;39.59
54122;BME280;40029;58.708;50.190;2023-02-18T07:22:37;100146.28;;;-7.86;39.53
54122;BME280;40029;58.708;50.190;2023-02-18T07:25:08;100104.75;;;-7.91;39.44
54122;BME280;40029;58.708;50.190;2023-02-18T07:27:39;100118.19;;;-7.73;39.10
54122;BME280;40029;58.708;50.190;2023-02-18T07:30:11;100182.41;;;-7.27;39.24
54122;BME280;40029;58.708;50.190;2023-02-18T07:32:42;100108.47;;;-7.62;39.26
54122;BME280;40029;58.708;50.190;2023-02-18T07:35:16;100163.16;;;-7.24;39.33
54122;BME280;40029;58.708;50.190;2023-02-18T07:37:48;100123.16;;;-7.33;39.26
54122;BME280;40029;58.708;50.190;2023-02-18T07:40:38;100114.31;;;-7.21;38.80
54122;BME280;40029;58.708;50.190;2023-02-18T07:43:10;100157.84;;;-6.87;39.01
54122;BME280;40029;58.708;50.190;2023-02-18T07:46:05;100157.16;;;-6.83;38.76
54122;BME280;40029;58.708;50.190;2023-02-18T07:48:36;100153.06;;;-6.79;38.81
54122;BME280;40029;58.708;50.190;2023-02-18T07:51:26;100093.25;;;-6.98;38.84
54122;BME280;40029;58.708;50.190;2023-02-18T07:54:15;100156.56;;;-6.53;38.80
54122;BME280;40029;58.708;50.190;2023-02-18T07:57:06;100151.81;;;-6.44;38.31
54122;BME280;40029;58.708;50.190;2023-02-18T07:59:37;100090.97;;;-6.68;38.55
54122;BME280;40029;58.708;50.190;2023-02-18T08:02:19;100149.72;;;-6.32;38.12
54122;BME280;40029;58.708;50.190;2023-02-18T08:04:50;100131.88;;;-6.35;38.09
54122;BME280;40029;58.708;50.190;2023-02-18T08:07:22;100134.03;;;-6.21;38.13
54122;BME280;40029;58.708;50.190;2023-02-18T08:10:11;100140.63;;;-6.02;38.13
54122;BME280;40029;58.708;50.190;2023-02-18T08:12:44;100139.94;;;-5.97;37.81
54122;BME280;40029;58.708;50.190;2023-02-18T08:15:15;100133.03;;;-6.01;38.26
54122;BME280;40029;58.708;50.190;2023-02-18T08:17:46;100135.66;;;-6.23;38.06
54122;BME280;40029;58.708;50.190;2023-02-18T08:20:17;100077.69;;;-6.62;37.94
54122;BME280;40029;58.708;50.190;2023-02-18T08:22:48;100117.94;;;-6.22;37.85
54122;BME280;40029;58.708;50.190;2023-02-18T08:25:38;100114.56;;;-6.22;37.81
54122;BME280;40029;58.708;50.190;2023-02-18T08:28:27;100122.94;;;-5.99;37.59
54122;BME280;40029;58.708;50.190;2023-02-18T08:30:58;100109.53;;;-6.21;37.88
54122;BME280;40029;58.708;50.190;2023-02-18T08:33:30;100108.13;;;-6.13;37.57
54122;BME280;40029;58.708;50.190;2023-02-18T08:36:06;100121.56;;;-5.90;37.50
54122;BME280;40029;58.708;50.190;2023-02-18T08:38:37;100118.19;;;-6.16;37.64
54122;BME280;40029;58.708;50.190;2023-02-18T08:41:09;100075.00;;;-6.17;37.76
54122;BME280;40029;58.708;50.190;2023-02-18T08:43:41;100117.69;;;-5.79;37.61
54122;BME280;40029;58.708;50.190;2023-02-18T08:46:12;100053.19;;;-6.12;37.36
54122;BME280;40029;58.708;50.190;2023-02-18T08:48:44;100059.44;;;-6.02;37.74
54122;BME280;40029;58.708;50.190;2023-02-18T08:51:18;100086.94;;;-5.88;37.33
54122;BME280;40029;58.708;50.190;2023-02-18T08:53:49;100067.25;;;-5.96;37.19
54122;BME280;40029;58.708;50.190;2023-02-18T08:56:20;100048.59;;;-5.98;37.50
54122;BME280;40029;58.708;50.190;2023-02-18T08:59:10;100086.78;;;-5.67;37.01
54122;BME280;40029;58.708;50.190;2023-02-18T09:01:41;100090.97;;;-5.69;37.21
54122;BME280;40029;58.708;50.190;2023-02-18T09:04:12;100090.38;;;-5.60;37.14
54122;BME280;40029;58.708;50.190;2023-02-18T09:06:43;100074.34;;;-5.59;37.00
54122;BME280;40029;58.708;50.190;2023-02-18T09:09:17;100102.94;;;-5.38;36.56
54122;BME280;40029;58.708;50.190;2023-02-18T09:11:48;100084.06;;;-5.46;36.24
54122;BME280;40029;58.708;50.190;2023-02-18T09:14:19;100087.94;;;-5.30;36.90
54122;BME280;40029;58.708;50.190;2023-02-18T09:16:51;100087.34;;;-5.21;36.55
54122;BME280;40029;58.708;50.190;2023-02-18T09:19:23;99976.25;;;-5.84;36.73
54122;BME280;40029;58.708;50.190;2023-02-18T09:21:54;100032.69;;;-5.37;36.38
54122;BME280;40029;58.708;50.190;2023-02-18T09:24:45;100058.13;;;-5.07;36.25
54122;BME280;40029;58.708;50.190;2023-02-18T09:27:17;100071.03;;;-5.01;36.03
54122;BME280;40029;58.708;50.190;2023-02-18T09:30:06;100032.38;;;-5.19;36.04
54122;BME280;40029;58.708;50.190;2023-02-18T09:32:38;100006.69;;;-5.29;35.66
54122;BME280;40029;58.708;50.190;2023-02-18T09:35:09;100018.78;;;-5.21;35.83
54122;BME280;40029;58.708;50.190;2023-02-18T09:37:40;100062.28;;;-4.81;35.79
54122;BME280;40029;58.708;50.190;2023-02-18T09:40:23;99997.00;;;-5.13;35.74
54122;BME280;40029;58.708;50.190;2023-02-18T09:42:56;100050.88;;;-4.65;35.57
54122;BME280;40029;58.708;50.190;2023-02-18T09:45:48;100052.91;;;-4.52;35.49
54122;BME280;40029;58.708;50.190;2023-02-18T09:48:26;100000.00;;;-4.66;35.50
54122;BME280;40029;58.708;50.190;2023-02-18T09:50:58;100036.47;;;-4.64;34.73
54122;BME280;40029;58.708;50.190;2023-02-18T09:53:29;100001.50;;;-4.73;35.34
54122;BME280;40029;58.708;50.190;2023-02-18T09:56:01;100037.16;;;-4.38;35.23
54122;BME280;40029;58.708;50.190;2023-02-18T09:58:32;99991.75;;;-4.58;34.37
54122;BME280;40029;58.708;50.190;2023-02-18T10:03:41;100037.09;;;-4.08;34.96
54122;BME280;40029;58.708;50.190;2023-02-18T10:06:24;99977.91;;;-4.34;34.21
54122;BME280;40029;58.708;50.190;2023-02-18T10:09:05;100017.84;;;-3.98;34.57
54122;BME280;40029;58.708;50.190;2023-02-18T10:11:47;100027.41;;;-3.88;34.81
54122;BME280;40029;58.708;50.190;2023-02-18T10:14:37;99978.75;;;-4.00;34.57
54122;BME280;40029;58.708;50.190;2023-02-18T10:17:31;100012.28;;;-3.82;34.18
54122;BME280;40029;58.708;50.190;2023-02-18T10:20:24;99978.09;;;-3.92;34.21
54122;BME280;40029;58.708;50.190;2023-02-18T10:22:59;100010.75;;;-3.74;34.07
54122;BME280;40029;58.708;50.190;2023-02-18T10:25:33;99958.59;;;-3.91;34.01
54122;BME280;40029;58.708;50.190;2023-02-18T10:28:09;100007.91;;;-3.52;34.04
54122;BME280;40029;58.708;50.190;2023-02-18T10:31:02;99970.16;;;-3.69;33.45
54122;BME280;40029;58.708;50.190;2023-02-18T10:34:06;100024.50;;;-3.30;33.03
54122;BME280;40029;58.708;50.190;2023-02-18T10:36:49;99959.41;;;-3.56;33.50
54122;BME280;40029;58.708;50.190;2023-02-18T10:51:47;99939.41;;;-3.38;32.81
54122;BME280;40029;58.708;50.190;2023-02-18T10:54:25;99991.09;;;-3.03;33.00
54122;BME280;40029;58.708;50.190;2023-02-18T10:56:59;99880.41;;;-3.58;32.71
54122;BME280;40029;58.708;50.190;2023-02-18T10:59:32;99931.22;;;-3.23;32.69
54122;BME280;40029;58.708;50.190;2023-02-18T11:02:17;99924.38;;;-3.27;32.53
54122;BME280;40029;58.708;50.190;2023-02-18T11:05:24;99918.34;;;-3.31;32.13
54122;BME280;40029;58.708;50.190;2023-02-18T11:07:56;99931.13;;;-3.28;33.07
54122;BME280;40029;58.708;50.190;2023-02-18T11:10:31;99960.25;;;-3.15;32.37
54122;BME280;40029;58.708;50.190;2023-02-18T11:13:08;99964.91;;;-2.95;33.04
54122;BME280;40029;58.708;50.190;2023-02-18T11:16:12;99971.78;;;-2.90;32.64
54122;BME280;40029;58.708;50.190;2023-02-18T11:18:44;99972.63;;;-2.91;32.75
54122;BME280;40029;58.708;50.190;2023-02-18T11:21:28;99969.38;;;-2.84;32.73
54122;BME280;40029;58.708;50.190;2023-02-18T11:24:07;99963.53;;;-2.78;32.63
54122;BME280;40029;58.708;50.190;2023-02-18T11:26:39;99972.16;;;-2.71;32.58
54122;BME280;40029;58.708;50.190;2023-02-18T11:29:18;99985.19;;;-2.56;32.48
54122;BME280;40029;58.708;50.190;2023-02-18T11:31:53;99944.91;;;-2.74;32.32
54122;BME280;40029;58.708;50.190;2023-02-18T11:34:28;99975.19;;;-2.44;32.45
54122;BME280;40029;58.708;50.190;2023-02-18T11:37:20;99907.41;;;-2.80;32.26
54122;BME280;40029;58.708;50.190;2023-02-18T11:39:54;99972.63;;;-2.45;32.00
54122;BME280;40029;58.708;50.190;2023-02-18T11:42:27;99916.88;;;-2.72;32.33
54122;BME280;40029;58.708;50.190;2023-02-18T11:45:29;99930.63;;;-2.64;31.95
54122;BME280;40029;58.708;50.190;2023-02-18T11:50:41;99908.97;;;-2.86;32.63
54122;BME280;40029;58.708;50.190;2023-02-18T11:53:34;99930.47;;;-2.72;31.69
54122;BME280;40029;58.708;50.190;2023-02-18T11:56:16;99930.66;;;-2.63;31.79
54122;BME280;40029;58.708;50.190;2023-02-18T11:58:49;99917.91;;;-2.63;31.98
54122;BME280;40029;58.708;50.190;2023-02-18T12:01:49;99962.72;;;-2.29;32.25
54122;BME280;40029;58.708;50.190;2023-02-18T12:04:28;99954.84;;;-2.41;31.98
54122;BME280;40029;58.708;50.190;2023-02-18T12:09:48;99966.91;;;-2.32;31.67
54122;BME280;40029;58.708;50.190;2023-02-18T12:12:36;99889.72;;;-2.70;32.85
54122;BME280;40029;58.708;50.190;2023-02-18T12:15:18;99954.25;;;-2.26;32.49
54122;BME280;40029;58.708;50.190;2023-02-18T12:18:19;99951.81;;;-2.18;32.62
54122;BME280;40029;58.708;50.190;2023-02-18T12:41:57;99942.19;;;-1.79;31.66
54122;BME280;40029;58.708;50.190;2023-02-18T13:08:17;99952.72;;;-2.65;32.01
54122;BME280;40029;58.708;50.190;2023-02-18T13:14:17;99950.19;;;-3.09;31.88
54122;BME280;40029;58.708;50.190;2023-02-18T13:16:54;99884.03;;;-3.48;32.21
54122;BME280;40029;58.708;50.190;2023-02-18T13:19:32;99883.69;;;-3.63;32.16
54122;BME280;40029;58.708;50.190;2023-02-18T13:22:05;99948.00;;;-3.33;32.26
54122;BME280;40029;58.708;50.190;2023-02-18T13:24:42;99930.66;;;-3.50;32.61
54122;BME280;40029;58.708;50.190;2023-02-18T13:30:21;99903.72;;;-3.80;32.92
54122;BME280;40029;58.708;50.190;2023-02-18T13:32:59;99952.53;;;-3.60;32.87
54122;BME280;40029;58.708;50.190;2023-02-18T13:35:43;99954.00;;;-3.70;32.64
54122;BME280;40029;58.708;50.190;2023-02-18T13:38:52;99955.56;;;-3.75;33.37
54122;BME280;40029;58.708;50.190;2023-02-18T13:41:45;99927.94;;;-3.96;32.99
54122;BME280;40029;58.708;50.190;2023-02-18T13:46:54;99896.59;;;-4.33;33.83
54122;BME280;40029;58.708;50.190;2023-02-18T13:49:35;99885.19;;;-4.48;33.51
54122;BME280;40029;58.708;50.190;2023-02-18T13:52:17;99954.59;;;-4.16;33.84
54122;BME280;40029;58.708;50.190;2023-02-18T13:54:50;99904.59;;;-4.50;33.92
54122;BME280;40029;58.708;50.190;2023-02-18T13:57:40;99942.38;;;-4.33;33.84
54122;BME280;40029;58.708;50.190;2023-02-18T14:00:20;99874.38;;;-4.74;33.73
54122;BME280;40029;58.708;50.190;2023-02-18T14:03:01;99930.19;;;-4.46;33.85
54122;BME280;40029;58.708;50.190;2023-02-18T14:05:40;99897.28;;;-4.73;34.05
54122;BME280;40029;58.708;50.190;2023-02-18T14:08:35;99952.03;;;-4.53;34.05
54122;BME280;40029;58.708;50.190;2023-02-18T14:19:52;99960.13;;;-4.99;34.04
54122;BME280;40029;58.708;50.190;2023-02-18T14:28:01;99956.03;;;-5.54;34.38
54122;BME280;40029;58.708;50.190;2023-02-18T14:30:39;99918.06;;;-5.78;34.47
54122;BME280;40029;58.708;50.190;2023-02-18T14:33:14;99938.19;;;-5.84;34.18
54122;BME280;40029;58.708;50.190;2023-02-18T14:35:56;99935.31;;;-5.96;33.95
54122;BME280;40029;58.708;50.190;2023-02-18T14:38:53;99883.25;;;-6.41;34.08
54122;BME280;40029;58.708;50.190;2023-02-18T14:41:31;99945.06;;;-6.10;34.21
54122;BME280;40029;58.708;50.190;2023-02-18T14:50:36;99954.06;;;-6.71;34.40
54122;BME280;40029;58.708;50.190;2023-02-18T14:53:10;99949.44;;;-6.83;34.66
54122;BME280;40029;58.708;50.190;2023-02-18T14:56:08;99892.66;;;-7.37;34.86
54122;BME280;40029;58.708;50.190;2023-02-18T14:59:02;99946.69;;;-7.13;35.23
54122;BME280;40029;58.708;50.190;2023-02-18T15:01:54;99865.94;;;-7.77;34.77
54122;BME280;40029;58.708;50.190;2023-02-18T15:04:26;99889.38;;;-7.81;35.18
54122;BME280;40029;58.708;50.190;2023-02-18T15:07:03;99954.44;;;-7.55;34.97
54122;BME280;40029;58.708;50.190;2023-02-18T15:09:44;99886.81;;;-8.03;35.50
54122;BME280;40029;58.708;50.190;2023-02-18T15:12:19;99930.78;;;-7.77;35.41
54122;BME280;40029;58.708;50.190;2023-02-18T15:15:13;99814.25;;;-8.52;35.27
54122;BME280;40029;58.708;50.190;2023-02-18T15:17:47;99913.28;;;-7.95;35.49
54122;BME280;40029;58.708;50.190;2023-02-18T15:20:19;99936.38;;;-7.86;35.76
54122;BME280;40029;58.708;50.190;2023-02-18T15:23:15;99943.09;;;-7.87;35.38
54122;BME280;40029;58.708;50.190;2023-02-18T15:26:06;99893.53;;;-8.26;35.15
54122;BME280;40029;58.708;50.190;2023-02-18T15:29:03;99869.19;;;-8.47;35.63
54122;BME280;40029;58.708;50.190;2023-02-18T15:31:37;99952.38;;;-8.08;35.70
54122;BME280;40029;58.708;50.190;2023-02-18T15:37:00;99938.97;;;-8.28;35.95
54122;BME280;40029;58.708;50.190;2023-02-18T15:39:33;99952.34;;;-8.31;35.83
54122;BME280;40029;58.708;50.190;2023-02-18T15:42:09;99874.91;;;-8.72;35.53
54122;BME280;40029;58.708;50.190;2023-02-18T15:44:46;99928.91;;;-8.49;36.06
54122;BME280;40029;58.708;50.190;2023-02-18T15:47:19;99890.88;;;-8.73;35.83
54122;BME280;40029;58.708;50.190;2023-02-18T15:49:53;99869.19;;;-8.89;35.97
54122;BME280;40029;58.708;50.190;2023-02-18T15:52:29;99944.47;;;-8.59;35.77
54122;BME280;40029;58.708;50.190;2023-02-18T15:55:40;99939.78;;;-8.71;35.78
54122;BME280;40029;58.708;50.190;2023-02-18T15:58:22;99884.25;;;-9.11;35.98
54122;BME280;40029;58.708;50.190;2023-02-18T16:01:26;99891.63;;;-9.16;35.82